Time;durP1;ratioP1;P1;durP2;ratioP2;P2;SDS_P1;SDS_P2;PMS_P1;PMS_P2;Temp;Humidity;BMP_temperature;BMP_pressure;BME280_temperature;BME280_humidity;BME280_pressure;Samples;Min_cycle;Max_cycle;Signal;HPM_P1;HPM_P2
2022/12/01 00:01:41;;;;;;;53.17;26.35;;;0.70;99.90;;;;;;5029873;28;20091;-56
2022/12/01 00:04:07;;;;;;;50.70;25.15;;;0.80;99.90;;;;;;5029773;28;20380;-54
2022/12/01 00:06:33;;;;;;;47.50;24.08;;;0.80;99.90;;;;;;5029859;28;20101;-53
2022/12/01 00:11:43;;;;;;;45.63;23.48;;;0.70;99.90;;;;;;5029998;28;20184;-53
2022/12/01 00:14:09;;;;;;;52.25;25.13;;;0.70;99.90;;;;;;5029601;28;20496;-53
2022/12/01 00:16:34;;;;;;;51.85;26.65;;;0.80;99.90;;;;;;5029573;28;20087;-54
2022/12/01 00:19:00;;;;;;;61.35;28.65;;;0.80;99.90;;;;;;5029598;28;20025;-54
2022/12/01 00:21:26;;;;;;;63.88;29.65;;;0.90;99.90;;;;;;5029720;28;20022;-53
2022/12/01 00:23:55;;;;;;;65.60;29.25;;;0.80;99.90;;;;;;5029534;28;20032;-54
2022/12/01 00:26:21;;;;;;;71.50;31.88;;;0.90;99.90;;;;;;5011549;28;20048;-53
2022/12/01 00:28:51;;;;;;;75.50;30.67;;;0.90;99.90;;;;;;5029767;28;20492;-58
2022/12/01 00:31:18;;;;;;;69.47;31.35;;;0.90;99.90;;;;;;5029615;28;20393;-55
2022/12/01 00:33:43;;;;;;;63.10;28.85;;;0.90;99.90;;;;;;5011818;28;20397;-54
2022/12/01 00:36:09;;;;;;;56.47;28.33;;;0.90;99.90;;;;;;5011940;28;20554;-54
2022/12/01 00:38:35;;;;;;;57.10;27.27;;;0.90;99.90;;;;;;5029596;28;20529;-55
2022/12/01 00:41:02;;;;;;;57.40;27.15;;;0.90;99.90;;;;;;5029424;28;20377;-54
2022/12/01 00:43:27;;;;;;;68.77;28.10;;;0.90;99.90;;;;;;5029388;28;20496;-57
2022/12/01 00:45:55;;;;;;;61.40;27.30;;;1.00;99.90;;;;;;5029293;28;20268;-53
2022/12/01 00:48:20;;;;;;;60.10;27.05;;;1.00;99.90;;;;;;5029432;28;20481;-54
2022/12/01 00:50:46;;;;;;;61.92;28.23;;;1.00;99.90;;;;;;5029261;28;20036;-54
2022/12/01 00:53:12;;;;;;;68.70;29.65;;;1.00;99.90;;;;;;5029317;28;20030;-54
2022/12/01 00:55:39;;;;;;;74.07;29.48;;;0.90;99.90;;;;;;5031328;28;20032;-54
2022/12/01 00:58:06;;;;;;;75.07;31.58;;;0.90;99.90;;;;;;5032931;28;20025;-57
2022/12/01 01:00:31;;;;;;;77.25;33.58;;;0.90;99.90;;;;;;5033037;28;20025;-53
2022/12/01 01:02:57;;;;;;;70.97;29.25;;;0.90;99.90;;;;;;5033312;28;20028;-54
2022/12/01 01:05:22;;;;;;;71.32;29.80;;;0.90;99.90;;;;;;5015300;28;20025;-54
2022/12/01 01:07:48;;;;;;;60.15;27.85;;;0.80;99.90;;;;;;5032976;28;20025;-54
2022/12/01 01:10:14;;;;;;;56.60;26.58;;;0.90;99.90;;;;;;5032932;28;20050;-58
2022/12/01 01:12:39;;;;;;;54.30;26.23;;;0.90;99.90;;;;;;5032772;28;20032;-57
2022/12/01 01:15:06;;;;;;;60.83;28.85;;;0.90;99.90;;;;;;5032670;28;20477;-54
2022/12/01 01:17:32;;;;;;;55.83;27.92;;;0.90;99.90;;;;;;5032616;28;20025;-56
2022/12/01 01:19:58;;;;;;;63.28;29.30;;;0.90;99.90;;;;;;4998767;28;20483;-54
2022/12/01 01:22:24;;;;;;;60.83;31.10;;;1.00;99.90;;;;;;5032781;28;20025;-54
2022/12/01 01:24:49;;;;;;;60.45;29.27;;;1.00;99.90;;;;;;5032613;28;20448;-53
2022/12/01 01:27:15;;;;;;;56.50;29.92;;;0.90;99.90;;;;;;5032231;28;20052;-55
2022/12/01 01:29:41;;;;;;;62.47;29.55;;;1.00;99.90;;;;;;5032604;28;20057;-57
2022/12/01 01:32:07;;;;;;;58.38;28.55;;;1.00;99.90;;;;;;5032801;28;20074;-55
2022/12/01 01:34:33;;;;;;;61.33;29.55;;;1.00;99.90;;;;;;5032347;28;20033;-53
2022/12/01 01:36:58;;;;;;;65.88;31.23;;;1.00;99.90;;;;;;5032466;28;20025;-53
2022/12/01 01:39:24;;;;;;;58.05;29.10;;;1.00;99.90;;;;;;5032275;28;20014;-57
2022/12/01 01:41:50;;;;;;;54.33;28.25;;;1.00;99.90;;;;;;5032320;28;20029;-55
2022/12/01 01:44:53;;;;;;;56.63;28.58;;;1.00;99.90;;;;;;5014501;28;20505;-57
2022/12/01 01:47:35;;;;;;;55.45;27.23;;;1.00;99.90;;;;;;5032151;28;20480;-58
2022/12/01 01:50:07;;;;;;;58.72;30.58;;;1.10;99.90;;;;;;5032330;28;20178;-53
2022/12/01 01:52:37;;;;;;;61.13;30.73;;;1.10;99.90;;;;;;5032447;28;20018;-52
2022/12/01 01:55:03;;;;;;;66.55;30.48;;;1.10;99.90;;;;;;5032197;28;20045;-52
2022/12/01 01:57:32;;;;;;;61.47;29.58;;;1.10;99.90;;;;;;5032009;28;20072;-58
2022/12/01 02:00:08;;;;;;;59.42;29.30;;;1.00;99.90;;;;;;5031910;28;20061;-55
2022/12/01 02:02:39;;;;;;;59.47;30.08;;;1.00;99.90;;;;;;5031999;28;20029;-53
2022/12/01 02:05:09;;;;;;;61.80;30.77;;;1.00;99.90;;;;;;5032009;28;20025;-55
2022/12/01 02:07:37;;;;;;;57.08;29.80;;;1.00;99.90;;;;;;5030906;28;20018;-56
2022/12/01 02:10:04;;;;;;;57.33;28.83;;;1.10;99.90;;;;;;5031657;28;20493;-56
2022/12/01 02:12:55;;;;;;;;;;;1.10;99.90;;;;;;5014477;28;20682;-52
2022/12/01 02:15:36;;;;;;;49.95;26.42;;;1.10;99.90;;;;;;5031657;28;19913;-53
2022/12/01 02:18:10;;;;;;;55.75;27.58;;;1.20;99.90;;;;;;5022112;28;20026;-54
2022/12/01 02:20:41;;;;;;;55.50;28.35;;;1.20;99.90;;;;;;5012119;28;20096;-58
2022/12/01 02:23:38;;;;;;;53.90;28.30;;;1.20;99.90;;;;;;5011572;28;20097;-58
2022/12/01 02:26:35;;;;;;;54.95;26.25;;;1.20;99.90;;;;;;5011486;28;20054;-56
2022/12/01 02:29:06;;;;;;;48.58;25.73;;;1.20;99.90;;;;;;5011778;28;20060;-54
2022/12/01 02:31:53;;;;;;;57.25;26.92;;;1.30;99.90;;;;;;5011591;28;20057;-53
2022/12/01 02:34:56;;;;;;;49.67;25.65;;;1.30;99.90;;;;;;5011678;28;20048;-53
2022/12/01 02:37:43;;;;;;;47.42;25.38;;;1.30;99.90;;;;;;5011587;28;20040;-57
2022/12/01 02:40:19;;;;;;;47.10;25.48;;;1.30;99.90;;;;;;5011263;28;20565;-55
2022/12/01 02:43:05;;;;;;;51.00;26.13;;;1.30;99.90;;;;;;5011664;28;20033;-54
2022/12/01 02:45:37;;;;;;;47.28;24.45;;;1.30;99.90;;;;;;4980730;28;20041;-56
2022/12/01 02:48:10;;;;;;;48.10;25.58;;;1.30;99.90;;;;;;5011151;28;20029;-55
2022/12/01 02:50:38;;;;;;;51.60;26.35;;;1.30;99.90;;;;;;5011263;28;20014;-54
2022/12/01 02:53:06;;;;;;;49.72;26.00;;;1.30;99.90;;;;;;5011442;28;20045;-54
2022/12/01 02:55:32;;;;;;;55.33;28.50;;;1.30;99.90;;;;;;5011146;28;20106;-57
2022/12/01 02:57:58;;;;;;;52.53;26.77;;;1.30;99.90;;;;;;5011131;28;20064;-56
2022/12/01 03:00:23;;;;;;;48.72;26.05;;;1.30;99.90;;;;;;5011008;28;20080;-55
2022/12/01 03:03:10;;;;;;;46.08;25.08;;;1.30;99.90;;;;;;5011186;28;20049;-53
2022/12/01 03:05:54;;;;;;;47.97;24.98;;;1.40;99.90;;;;;;5011359;28;20021;-54
2022/12/01 03:08:38;;;;;;;47.95;26.17;;;1.40;99.90;;;;;;5011099;28;20033;-54
2022/12/01 03:11:05;;;;;;;45.28;24.42;;;1.40;99.90;;;;;;5010790;28;20538;-54
2022/12/01 03:14:02;;;;;;;50.05;25.55;;;1.40;99.90;;;;;;5012868;28;20398;-54
2022/12/01 03:16:50;;;;;;;44.67;24.48;;;1.40;99.90;;;;;;5028318;28;20053;-57
2022/12/01 03:19:45;;;;;;;46.38;24.75;;;1.40;99.90;;;;;;5011153;28;20022;-55
2022/12/01 03:22:21;;;;;;;41.90;23.73;;;1.40;99.90;;;;;;5022233;28;20029;-54
2022/12/01 03:24:50;;;;;;;49.00;27.60;;;1.40;99.90;;;;;;5030744;28;20554;-54
2022/12/01 03:27:20;;;;;;;48.08;25.73;;;1.40;99.90;;;;;;5030655;28;20045;-55
2022/12/01 03:29:49;;;;;;;50.35;27.63;;;1.50;99.90;;;;;;5030342;28;20071;-56
2022/12/01 03:32:24;;;;;;;54.30;27.60;;;1.50;99.90;;;;;;5030742;28;20029;-54
2022/12/01 03:35:18;;;;;;;45.47;25.73;;;1.40;99.90;;;;;;5015713;28;20069;-54
2022/12/01 03:37:54;;;;;;;46.83;24.88;;;1.40;99.90;;;;;;5010638;28;20036;-53
2022/12/01 03:40:26;;;;;;;49.17;24.77;;;1.50;99.90;;;;;;5010868;28;20131;-54
2022/12/01 03:42:51;;;;;;;47.78;24.60;;;1.50;99.90;;;;;;5010733;28;20485;-55
2022/12/01 03:45:25;;;;;;;45.33;23.60;;;1.50;99.90;;;;;;5010621;28;20065;-52
2022/12/01 03:47:51;;;;;;;47.28;25.42;;;1.50;99.90;;;;;;5010561;28;20050;-55
2022/12/01 03:50:17;;;;;;;47.28;24.67;;;1.50;99.90;;;;;;5010742;28;20072;-58
2022/12/01 03:53:07;;;;;;;46.67;26.10;;;1.50;99.90;;;;;;5010474;28;20080;-54
2022/12/01 03:55:40;;;;;;;50.65;27.02;;;1.50;99.90;;;;;;5010772;28;20301;-56
2022/12/01 03:58:35;;;;;;;49.97;27.30;;;1.50;99.90;;;;;;5010288;28;20022;-52
2022/12/01 04:01:02;;;;;;;50.33;25.95;;;1.50;99.90;;;;;;4991420;28;21019;-56
2022/12/01 04:03:28;;;;;;;;;;;1.60;99.90;;;;;;5010926;28;20030;-54
2022/12/01 04:05:54;;;;;;;44.53;25.70;;;1.50;99.90;;;;;;5010326;28;19916;-58
2022/12/01 04:08:20;;;;;;;48.33;28.75;;;1.50;99.90;;;;;;5010386;28;20030;-58
2022/12/01 04:10:46;;;;;;;49.95;25.70;;;1.60;99.90;;;;;;5020054;28;20021;-56
2022/12/01 04:13:21;;;;;;;49.00;25.77;;;1.50;99.90;;;;;;5029878;28;20477;-54
2022/12/01 04:15:47;;;;;;;52.92;26.20;;;1.60;99.90;;;;;;5029894;28;20045;-51
2022/12/01 04:18:13;;;;;;;47.57;26.57;;;1.60;99.90;;;;;;5029790;28;20476;-58
2022/12/01 04:20:38;;;;;;;50.42;27.38;;;1.60;99.90;;;;;;5030092;28;20288;-55
2022/12/01 04:23:04;;;;;;;49.78;25.90;;;1.60;99.90;;;;;;5030301;28;20462;-56
2022/12/01 04:25:30;;;;;;;44.58;24.95;;;1.60;99.90;;;;;;5029576;28;20030;-52
2022/12/01 04:27:55;;;;;;;46.80;25.55;;;1.60;99.90;;;;;;5012487;28;20038;-51
2022/12/01 04:30:21;;;;;;;49.45;25.85;;;1.60;99.90;;;;;;5031350;28;20056;-53
2022/12/01 04:32:46;;;;;;;44.65;23.65;;;1.60;99.90;;;;;;5033734;28;20053;-55
2022/12/01 04:35:12;;;;;;;43.00;26.73;;;1.50;99.90;;;;;;5033597;28;20493;-56
2022/12/01 04:37:38;;;;;;;45.80;25.00;;;1.60;99.90;;;;;;5016083;28;20109;-58
2022/12/01 04:40:05;;;;;;;44.37;23.20;;;1.60;99.90;;;;;;5033765;28;20036;-55
2022/12/01 04:42:30;;;;;;;43.70;25.77;;;1.60;99.90;;;;;;5033784;28;20025;-53
2022/12/01 04:44:56;;;;;;;43.03;25.35;;;1.60;99.90;;;;;;5033664;28;20083;-53
2022/12/01 04:47:22;;;;;;;43.67;26.30;;;1.60;99.90;;;;;;5033296;28;20109;-53
2022/12/01 04:49:48;;;;;;;45.53;24.73;;;1.60;99.90;;;;;;5033624;28;20123;-53
2022/12/01 04:52:13;;;;;;;46.50;25.10;;;1.60;99.90;;;;;;4999614;28;20112;-53
2022/12/01 04:54:39;;;;;;;43.45;25.00;;;1.60;99.90;;;;;;5018422;28;20038;-54
2022/12/01 04:57:04;;;;;;;37.63;23.35;;;1.60;99.90;;;;;;5013658;28;20030;-57
2022/12/01 04:59:30;;;;;;;41.72;23.33;;;1.60;99.90;;;;;;4996029;28;20026;-55
2022/12/01 05:01:56;;;;;;;40.65;22.65;;;1.60;99.90;;;;;;5013593;28;20022;-57
2022/12/01 05:04:21;;;;;;;39.33;22.23;;;1.50;99.90;;;;;;5013403;28;20490;-56
2022/12/01 05:06:47;;;;;;;39.95;23.05;;;1.60;99.90;;;;;;5013594;28;20030;-53
2022/12/01 05:09:14;;;;;;;39.33;22.80;;;1.60;99.90;;;;;;5013614;28;20492;-53
2022/12/01 05:11:40;;;;;;;;;;;1.60;99.90;;;;;;5025801;28;20028;-52
2022/12/01 05:14:06;;;;;;;45.65;23.85;;;1.60;99.90;;;;;;5021963;28;20351;-57
2022/12/01 05:16:33;;;;;;;41.60;23.15;;;1.60;99.90;;;;;;5004501;28;20026;-55
2022/12/01 05:21:47;;;;;;;41.72;24.20;;;1.60;99.90;;;;;;5009885;28;20068;-56
2022/12/01 05:24:14;;;;;;;45.03;24.75;;;1.60;99.90;;;;;;5021672;28;20057;-56
2022/12/01 05:26:41;;;;;;;48.05;25.38;;;1.60;99.90;;;;;;5022593;28;20042;-55
2022/12/01 05:29:07;;;;;;;43.00;24.77;;;1.70;99.90;;;;;;5023159;28;20482;-54
2022/12/01 05:31:33;;;;;;;47.88;26.00;;;1.70;99.90;;;;;;5026924;28;20028;-57
2022/12/01 05:33:59;;;;;;;47.40;26.02;;;1.70;99.90;;;;;;5016906;28;20038;-58
2022/12/01 05:36:24;;;;;;;47.45;27.10;;;1.70;99.90;;;;;;5012858;28;20436;-57
2022/12/01 05:38:50;;;;;;;46.72;27.17;;;1.70;99.90;;;;;;5012770;28;20065;-57
2022/12/01 05:41:16;;;;;;;49.83;26.50;;;1.70;99.90;;;;;;5012880;28;20054;-55
2022/12/01 05:43:41;;;;;;;43.75;25.08;;;1.70;99.90;;;;;;5012542;28;20030;-53
2022/12/01 05:46:07;;;;;;;45.50;25.73;;;1.70;99.90;;;;;;5017525;28;20091;-52
2022/12/01 05:48:33;;;;;;;42.17;25.17;;;1.80;99.90;;;;;;5031280;28;20083;-53
2022/12/01 05:50:58;;;;;;;41.15;24.90;;;1.80;99.90;;;;;;5028609;28;20044;-53
2022/12/01 05:53:24;;;;;;;42.15;25.17;;;1.70;99.90;;;;;;5032049;28;20040;-54
2022/12/01 05:55:53;;;;;;;46.25;24.40;;;1.70;99.90;;;;;;5032061;28;20042;-56
2022/12/01 05:58:20;;;;;;;43.05;22.95;;;1.70;99.90;;;;;;5032329;28;20030;-56
2022/12/01 06:00:46;;;;;;;41.25;24.42;;;1.80;99.90;;;;;;5029140;28;20106;-53
2022/12/01 06:03:12;;;;;;;42.67;23.40;;;1.80;99.90;;;;;;5013746;28;20058;-53
2022/12/01 06:05:38;;;;;;;35.80;21.53;;;1.80;99.90;;;;;;5032070;28;20018;-57
2022/12/01 06:08:04;;;;;;;36.72;20.70;;;1.70;99.90;;;;;;5027038;28;20102;-58
2022/12/01 06:10:30;;;;;;;461.02;279.63;;;1.80;99.90;;;;;;4994383;28;20145;-59
2022/12/01 06:12:55;;;;;;;60.70;37.70;;;1.80;99.90;;;;;;5023139;28;20060;-54
2022/12/01 06:15:21;;;;;;;55.30;33.25;;;1.90;99.90;;;;;;5022053;28;20537;-52
2022/12/01 06:17:47;;;;;;;37.13;23.90;;;1.80;99.90;;;;;;5021262;28;20030;-53
2022/12/01 06:20:12;;;;;;;36.97;20.90;;;1.80;99.90;;;;;;5020884;28;20073;-54
2022/12/01 06:22:38;;;;;;;31.67;19.00;;;1.80;99.90;;;;;;5019961;28;20025;-53
2022/12/01 06:25:04;;;;;;;39.53;21.50;;;1.80;99.90;;;;;;5021204;28;20547;-52
2022/12/01 06:27:30;;;;;;;37.40;21.75;;;1.80;99.90;;;;;;5020744;28;20026;-54
2022/12/01 06:29:55;;;;;;;37.05;20.48;;;1.80;99.90;;;;;;5019640;28;20041;-53
2022/12/01 06:32:21;;;;;;;34.50;19.55;;;1.80;99.90;;;;;;5021701;28;20021;-55
2022/12/01 06:34:46;;;;;;;34.95;20.38;;;1.80;99.90;;;;;;5031038;28;20473;-58
2022/12/01 06:37:14;;;;;;;31.55;17.98;;;1.80;99.90;;;;;;5031766;28;20083;-59
2022/12/01 06:39:40;;;;;;;38.10;20.67;;;1.80;99.90;;;;;;5031735;28;20099;-61
2022/12/01 06:42:05;;;;;;;36.13;19.63;;;1.80;99.90;;;;;;5031571;28;20477;-57
2022/12/01 06:44:31;;;;;;;36.50;20.48;;;1.90;99.90;;;;;;5012840;28;20468;-54
2022/12/01 06:46:57;;;;;;;38.00;22.65;;;1.90;99.90;;;;;;5026712;28;20125;-53
2022/12/01 06:49:22;;;;;;;35.85;21.02;;;1.80;99.90;;;;;;5011447;28;20058;-54
2022/12/01 06:51:48;;;;;;;37.75;19.98;;;1.80;99.90;;;;;;5010581;28;20060;-55
2022/12/01 06:54:16;;;;;;;32.20;18.73;;;1.90;99.90;;;;;;5009548;28;20414;-54
2022/12/01 06:56:42;;;;;;;31.70;18.60;;;1.90;99.90;;;;;;5011194;28;20087;-53
2022/12/01 06:59:09;;;;;;;37.23;20.60;;;1.90;99.90;;;;;;5009937;28;20018;-57
2022/12/01 07:01:35;;;;;;;35.40;19.13;;;1.90;99.90;;;;;;5010786;28;20032;-58
2022/12/01 07:04:00;;;;;;;35.38;21.60;;;1.90;99.90;;;;;;5010665;28;20029;-60
2022/12/01 07:06:29;;;;;;;37.65;21.08;;;1.90;99.90;;;;;;5009167;28;20026;-59
2022/12/01 07:08:54;;;;;;;36.25;20.50;;;1.90;99.90;;;;;;5008936;28;20037;-60
2022/12/01 07:11:20;;;;;;;35.88;20.77;;;1.90;99.90;;;;;;5009134;28;20037;-60
2022/12/01 07:13:48;;;;;;;41.75;21.80;;;1.90;99.90;;;;;;5023310;28;20025;-59
2022/12/01 07:16:13;;;;;;;38.30;21.45;;;1.90;99.90;;;;;;5028821;28;20040;-58
2022/12/01 07:18:39;;;;;;;41.55;21.58;;;1.90;99.90;;;;;;5029108;28;20033;-61
2022/12/01 07:21:11;;;;;;;35.67;19.73;;;1.90;99.90;;;;;;5029125;28;20715;-60
2022/12/01 07:23:36;;;;;;;35.72;20.02;;;1.90;99.90;;;;;;5028456;28;20025;-59
2022/12/01 07:26:08;;;;;;;35.90;19.98;;;1.90;99.90;;;;;;5028444;28;20045;-59
2022/12/01 07:28:34;;;;;;;38.08;20.92;;;1.90;99.90;;;;;;5029958;28;20033;-61
2022/12/01 07:31:20;;;;;;;40.28;21.52;;;1.90;99.90;;;;;;5012804;28;20022;-59
2022/12/01 07:33:45;;;;;;;32.53;18.45;;;1.90;99.90;;;;;;5030027;28;20041;-54
2022/12/01 07:36:12;;;;;;;36.25;20.00;;;2.00;99.90;;;;;;5030257;28;20480;-53
2022/12/01 07:38:38;;;;;;;33.83;19.15;;;2.00;99.90;;;;;;5030646;28;20402;-58
2022/12/01 07:41:10;;;;;;;34.90;20.20;;;2.00;99.90;;;;;;5030758;28;20112;-58
2022/12/01 07:43:36;;;;;;;45.15;24.13;;;2.00;99.90;;;;;;5030392;28;20076;-61
2022/12/01 07:46:09;;;;;;;37.13;21.35;;;2.00;99.90;;;;;;5030128;28;20029;-60
2022/12/01 07:48:36;;;;;;;41.72;22.60;;;2.00;99.90;;;;;;5030227;28;20029;-61
2022/12/01 07:51:03;;;;;;;42.17;22.42;;;2.00;99.90;;;;;;5030236;28;20033;-58
2022/12/01 07:53:29;;;;;;;47.03;24.15;;;2.00;99.90;;;;;;5012379;28;20591;-54
2022/12/01 07:55:55;;;;;;;45.42;23.83;;;2.00;99.90;;;;;;5030399;28;20041;-56
2022/12/01 07:58:21;;;;;;;46.67;21.45;;;2.00;99.90;;;;;;5030538;28;20098;-55
2022/12/01 08:00:46;;;;;;;45.83;25.75;;;2.00;99.90;;;;;;5030530;28;20065;-56
2022/12/01 08:03:12;;;;;;;43.45;21.05;;;2.00;99.90;;;;;;5030262;28;20024;-59
2022/12/01 08:05:38;;;;;;;34.45;18.98;;;2.00;99.90;;;;;;5029176;28;20513;-56
2022/12/01 08:08:04;;;;;;;36.03;21.00;;;2.00;99.90;;;;;;5030082;28;20029;-56
2022/12/01 08:10:30;;;;;;;41.97;21.92;;;2.00;99.90;;;;;;5030121;28;20079;-57
2022/12/01 08:12:55;;;;;;;35.97;18.35;;;2.00;99.90;;;;;;5030234;28;20021;-56
2022/12/01 08:15:21;;;;;;;34.50;18.63;;;2.00;99.90;;;;;;5029648;28;20128;-58
2022/12/01 08:17:47;;;;;;;37.85;21.05;;;2.00;99.90;;;;;;5029806;28;20036;-58
2022/12/01 08:20:14;;;;;;;36.95;19.63;;;2.00;99.90;;;;;;5030058;28;20021;-59
2022/12/01 08:22:40;;;;;;;38.90;20.80;;;2.10;99.90;;;;;;5029655;28;20112;-54
2022/12/01 08:25:06;;;;;;;37.38;19.10;;;2.10;99.90;;;;;;5029849;28;20113;-55
2022/12/01 08:27:33;;;;;;;35.47;17.92;;;2.10;99.90;;;;;;5029827;28;20132;-58
2022/12/01 08:29:58;;;;;;;31.77;18.70;;;2.00;99.90;;;;;;5029753;28;20603;-54
2022/12/01 08:32:24;;;;;;;33.65;17.55;;;2.00;99.90;;;;;;5029425;28;20057;-59
2022/12/01 08:34:50;;;;;;;32.72;18.40;;;2.00;99.90;;;;;;5029814;28;20059;-59
2022/12/01 08:37:15;;;;;;;33.13;19.15;;;2.00;99.90;;;;;;5011903;28;20381;-57
2022/12/01 08:39:41;;;;;;;33.13;18.67;;;2.00;99.90;;;;;;5029476;28;20040;-55
2022/12/01 08:42:06;;;;;;;29.88;16.30;;;2.00;99.90;;;;;;5029636;28;20029;-55
2022/12/01 08:44:32;;;;;;;27.40;16.02;;;1.90;99.90;;;;;;5030058;28;20037;-53
2022/12/01 08:46:58;;;;;;;37.72;20.05;;;2.00;99.90;;;;;;5029640;28;20025;-54
2022/12/01 08:49:23;;;;;;;31.70;18.52;;;1.90;99.90;;;;;;5029772;28;20029;-58
2022/12/01 08:51:49;;;;;;;30.48;17.73;;;1.90;99.90;;;;;;5029639;28;20036;-59
2022/12/01 08:54:14;;;;;;;38.00;21.17;;;1.90;99.90;;;;;;5029770;28;20384;-62
2022/12/01 08:56:43;;;;;;;39.70;23.17;;;2.00;99.90;;;;;;5029753;28;20112;-58
2022/12/01 08:59:08;;;;;;;43.03;24.40;;;2.00;99.90;;;;;;5029838;28;20022;-57
2022/12/01 09:01:50;;;;;;;32.08;18.00;;;2.00;99.90;;;;;;5012020;28;20091;-59
2022/12/01 09:04:17;;;;;;;34.70;17.65;;;2.00;99.90;;;;;;5029538;28;20049;-54
2022/12/01 09:06:45;;;;;;;32.33;18.55;;;1.90;99.90;;;;;;5029272;28;20021;-57
2022/12/01 09:09:15;;;;;;;31.15;17.42;;;2.00;99.90;;;;;;5029752;28;20072;-55
2022/12/01 09:11:42;;;;;;;33.20;18.40;;;2.00;99.90;;;;;;5029235;28;20072;-56
2022/12/01 09:14:08;;;;;;;30.30;17.33;;;2.00;99.90;;;;;;5012851;28;20026;-60
2022/12/01 09:16:34;;;;;;;36.72;20.05;;;2.00;99.90;;;;;;5011475;28;20037;-59
2022/12/01 09:19:00;;;;;;;32.15;18.77;;;2.00;99.90;;;;;;5013051;28;20428;-59
2022/12/01 09:21:29;;;;;;;40.78;20.85;;;2.00;99.90;;;;;;5013195;28;20044;-60
2022/12/01 09:23:55;;;;;;;46.92;24.02;;;2.00;99.90;;;;;;4995621;28;20366;-58
2022/12/01 09:26:21;;;;;;;48.10;26.48;;;2.00;99.90;;;;;;4995319;28;20080;-59
2022/12/01 09:28:57;;;;;;;52.53;26.70;;;2.00;99.90;;;;;;5013084;28;20034;-56
2022/12/01 09:31:23;;;;;;;43.95;22.23;;;2.00;99.90;;;;;;5012598;28;20085;-58
2022/12/01 09:33:57;;;;;;;41.08;23.45;;;2.00;99.90;;;;;;5013047;28;20030;-54
2022/12/01 09:36:24;;;;;;;41.35;22.95;;;2.00;99.90;;;;;;5012951;28;20038;-61
2022/12/01 09:38:49;;;;;;;40.47;21.60;;;2.00;99.90;;;;;;4995862;28;20060;-56
2022/12/01 09:41:18;;;;;;;38.33;21.65;;;2.00;99.90;;;;;;5013196;28;20387;-58
2022/12/01 09:44:21;;;;;;;49.42;23.88;;;2.00;99.90;;;;;;5012840;28;20032;-53
2022/12/01 09:47:13;;;;;;;39.67;22.30;;;2.10;99.90;;;;;;4991302;28;20038;-58
2022/12/01 09:50:05;;;;;;;44.25;22.65;;;2.10;99.90;;;;;;4994790;28;20476;-58
2022/12/01 09:53:14;;;;;;;45.30;24.92;;;2.10;99.90;;;;;;5012629;28;20065;-58
2022/12/01 09:55:39;;;;;;;34.78;21.55;;;2.10;99.90;;;;;;5010586;28;20075;-54
2022/12/01 09:58:20;;;;;;;38.25;20.48;;;2.10;99.90;;;;;;4994671;28;20030;-54
2022/12/01 10:00:48;;;;;;;44.47;22.88;;;2.10;99.90;;;;;;5012610;28;20037;-58
2022/12/01 10:03:34;;;;;;;40.08;22.40;;;2.10;99.90;;;;;;5011471;28;20041;-57
2022/12/01 10:06:09;;;;;;;45.47;22.27;;;2.10;99.90;;;;;;5012436;28;20025;-59
2022/12/01 10:08:42;;;;;;;41.47;22.30;;;2.10;99.90;;;;;;5011911;28;20022;-59
2022/12/01 10:11:23;;;;;;;40.80;22.00;;;2.10;99.90;;;;;;5010691;28;20084;-55
2022/12/01 10:13:48;;;;;;;36.55;21.45;;;2.10;99.90;;;;;;5024594;28;20690;-53
2022/12/01 10:16:25;;;;;;;36.65;20.35;;;2.10;99.90;;;;;;5030925;28;20044;-54
2022/12/01 10:19:31;;;;;;;35.38;20.50;;;2.10;99.90;;;;;;5030979;28;20025;-58
2022/12/01 10:22:26;;;;;;;34.92;19.83;;;2.10;99.90;;;;;;4969886;28;20197;-55
2022/12/01 10:25:00;;;;;;;39.55;21.98;;;2.10;99.90;;;;;;5031751;28;20025;-57
2022/12/01 10:27:32;;;;;;;34.90;21.05;;;2.10;99.90;;;;;;5030723;28;20058;-57
2022/12/01 10:30:12;;;;;;;38.83;21.30;;;2.00;99.90;;;;;;5014874;28;20072;-55
2022/12/01 10:32:50;;;;;;;38.55;21.88;;;2.00;99.90;;;;;;5011835;28;20030;-54
2022/12/01 10:35:18;;;;;;;35.83;22.05;;;2.10;99.90;;;;;;5011854;28;20493;-59
2022/12/01 10:37:46;;;;;;;40.72;21.08;;;2.00;99.90;;;;;;5011979;28;20033;-55
2022/12/01 10:40:14;;;;;;;52.63;21.90;;;2.10;99.90;;;;;;5011951;28;20044;-56
2022/12/01 10:42:48;;;;;;;32.22;16.35;;;2.10;99.90;;;;;;5011672;28;20108;-53
2022/12/01 10:45:19;;;;;;;33.35;18.67;;;2.00;99.90;;;;;;5011758;28;20034;-60
2022/12/01 10:48:06;;;;;;;34.50;19.50;;;2.00;99.90;;;;;;5011639;28;20057;-55
2022/12/01 10:50:33;;;;;;;34.60;21.23;;;2.00;99.90;;;;;;5011531;28;20034;-60
2022/12/01 10:52:59;;;;;;;42.67;25.42;;;2.10;99.90;;;;;;5011416;28;20026;-59
2022/12/01 10:55:42;;;;;;;35.30;20.77;;;2.10;99.90;;;;;;5011536;28;20417;-58
2022/12/01 10:58:17;;;;;;;31.70;18.50;;;2.10;99.90;;;;;;5011424;28;20068;-54
2022/12/01 11:00:53;;;;;;;32.88;18.30;;;2.10;99.90;;;;;;5011383;28;20560;-59
2022/12/01 11:03:22;;;;;;;35.67;18.30;;;2.10;99.90;;;;;;4993699;28;20061;-55
2022/12/01 11:05:53;;;;;;;36.45;18.70;;;2.10;99.90;;;;;;5011256;28;20025;-57
2022/12/01 11:08:44;;;;;;;33.75;17.27;;;2.10;99.90;;;;;;5011360;28;20682;-56
2022/12/01 11:11:36;;;;;;;36.03;17.17;;;2.10;99.90;;;;;;5006274;28;20279;-55
2022/12/01 11:14:06;;;;;;;32.28;16.40;;;2.10;99.90;;;;;;5023364;28;20037;-61
2022/12/01 11:16:43;;;;;;;30.95;18.23;;;2.10;99.90;;;;;;5031016;28;20037;-57
2022/12/01 11:19:31;;;;;;;33.58;17.80;;;2.10;99.90;;;;;;5030932;28;20057;-55
2022/12/01 11:22:11;;;;;;;32.58;18.15;;;2.10;99.90;;;;;;5029827;28;20083;-60
2022/12/01 11:24:43;;;;;;;33.47;18.38;;;2.10;99.90;;;;;;5030590;28;20117;-53
2022/12/01 11:27:16;;;;;;;38.55;20.05;;;2.10;99.90;;;;;;5030442;28;20069;-54
2022/12/01 11:29:45;;;;;;;33.83;18.65;;;2.10;99.90;;;;;;5030579;28;20504;-58
2022/12/01 11:32:21;;;;;;;32.97;19.85;;;2.20;99.90;;;;;;5030759;28;20029;-60
2022/12/01 11:35:09;;;;;;;35.63;19.48;;;2.20;99.90;;;;;;5030396;28;20083;-55
2022/12/01 11:37:41;;;;;;;36.65;18.85;;;2.20;99.90;;;;;;5030585;28;20025;-54
2022/12/01 11:40:21;;;;;;;29.73;16.23;;;2.10;99.90;;;;;;5030269;28;20508;-54
2022/12/01 11:42:49;;;;;;;29.45;16.52;;;2.10;99.90;;;;;;5030436;28;20022;-57
2022/12/01 11:45:21;;;;;;;30.05;16.67;;;2.10;99.90;;;;;;5030482;28;20040;-56
2022/12/01 11:48:19;;;;;;;31.67;16.42;;;2.10;99.90;;;;;;5030368;28;20075;-56
2022/12/01 11:50:59;;;;;;;29.42;16.77;;;2.10;99.90;;;;;;5019337;28;20073;-54
2022/12/01 11:53:40;;;;;;;31.98;18.88;;;2.10;99.90;;;;;;5030419;28;20485;-56
2022/12/01 11:56:27;;;;;;;33.55;17.27;;;2.10;99.90;;;;;;5030161;28;20041;-58
2022/12/01 11:59:09;;;;;;;37.85;17.35;;;2.10;99.90;;;;;;5030218;28;20018;-60
2022/12/01 12:01:37;;;;;;;30.52;16.02;;;2.10;99.90;;;;;;5030229;28;20505;-55
2022/12/01 12:04:29;;;;;;;31.50;17.42;;;2.10;99.90;;;;;;5030024;28;20037;-58
2022/12/01 12:07:29;;;;;;;35.83;19.63;;;2.10;99.90;;;;;;5029829;28;20096;-54
2022/12/01 12:10:27;;;;;;;34.65;19.30;;;2.10;99.90;;;;;;5030061;28;20021;-56
2022/12/01 12:13:06;;;;;;;33.17;18.70;;;2.10;99.90;;;;;;5027476;28;20115;-56
2022/12/01 12:16:02;;;;;;;36.40;19.25;;;2.00;99.90;;;;;;5010431;28;20077;-55
2022/12/01 12:18:49;;;;;;;36.13;20.33;;;2.10;99.90;;;;;;4993244;28;20632;-55
2022/12/01 12:21:14;;;;;;;34.33;19.73;;;2.00;99.90;;;;;;5010125;28;20021;-53
2022/12/01 12:24:25;;;;;;;37.20;20.08;;;2.00;99.90;;;;;;4992638;28;20037;-58
2022/12/01 12:27:19;;;;;;;39.30;21.00;;;2.00;99.90;;;;;;4994272;28;20054;-58
2022/12/01 12:30:03;;;;;;;42.17;21.73;;;2.00;99.90;;;;;;4991892;28;20397;-57
2022/12/01 12:33:02;;;;;;;36.47;20.48;;;2.00;99.90;;;;;;5010169;28;20080;-57
2022/12/01 12:35:48;;;;;;;41.03;20.48;;;2.00;99.90;;;;;;4992190;28;20141;-57
2022/12/01 12:38:23;;;;;;;39.92;19.90;;;2.00;99.90;;;;;;5009917;28;20023;-55
2022/12/01 12:41:15;;;;;;;36.83;19.98;;;2.00;99.90;;;;;;5010279;28;20022;-56
2022/12/01 12:44:04;;;;;;;35.60;19.77;;;2.00;99.90;;;;;;4995015;28;20062;-58
2022/12/01 12:47:09;;;;;;;33.28;18.30;;;1.90;99.90;;;;;;4992261;28;20034;-53
2022/12/01 12:49:40;;;;;;;38.90;20.10;;;1.90;99.90;;;;;;4976027;28;20049;-59
2022/12/01 12:52:21;;;;;;;34.95;18.80;;;1.90;99.90;;;;;;5012749;28;20056;-59
2022/12/01 12:54:56;;;;;;;34.13;18.83;;;1.90;99.90;;;;;;5013889;28;20032;-59
2022/12/01 12:57:32;;;;;;;35.25;18.90;;;1.90;99.90;;;;;;5013740;28;20426;-55
2022/12/01 13:00:22;;;;;;;34.67;18.95;;;1.90;99.90;;;;;;4995836;28;20370;-59
2022/12/01 13:03:08;;;;;;;32.38;17.98;;;1.90;99.90;;;;;;4996092;28;20477;-56
2022/12/01 13:05:42;;;;;;;32.88;18.55;;;1.90;99.90;;;;;;5013666;28;20026;-55
2022/12/01 13:08:17;;;;;;;30.73;17.23;;;1.90;99.90;;;;;;4995809;28;20127;-55